• Join FlightAware (Why Join?)
  • Login
  • US Flag 
09:35PM EDT


 

Airport Tracker/Info


-or-


 

Live Flight TrackerFlight Track Log ✈ DAL930 ✈ 19-Apr-2013 ✈ KLGA - KFLL

Flight Track Log - Related Links

Times and Time Zones

All times are in EDT time to prevent confusion due to time zone crossing. See the DAL930 flight status page for this flight to view local times or setup timezone preferences in your user account.

Time Position Orientation Groundspeed Altitude Reporting Facility
EDT Latitude Longitude Course Direction KTS MPH feet Rate Location/Type
11:47AM 40.7667 -73.8333 217° Southwest 165 190 1,300  Level New York TRACON
11:48AM 40.7000 -73.8333 180° South 198 228 3,400 2,040 Climbing New York TRACON
11:49AM 40.4387 -74.0224 201° Southwest  Level FlightAware Approximate
11:49AM 40.6500 -73.8500 194° South 205 236 5,700  Level New York TRACON
11:50AM 40.3278 -74.0778 201° Southwest  Level FlightAware Approximate
11:50AM 40.6167 -73.9000 229° Southwest 201 231 8,300  Level New York TRACON
11:51AM 40.2170 -74.1331 201° Southwest  Level FlightAware Approximate
11:51AM 40.5500 -73.9333 201° Southwest 239 275 10,100  Level New York TRACON
11:52AM 40.1103 -74.1897 217° Southwest  Level FlightAware Approximate
11:52AM 40.5000 -73.9833 217° Southwest 286 329 11,200  Level New York TRACON
11:54AM 40.3519 -74.1072 213° Southwest 343 395 14,100 1,740 Climbing New York Center
11:55AM 40.2644 -74.1819 213° Southwest 375 432 16,200 1,920 Climbing New York Center
11:56AM 40.1767 -74.2564 213° Southwest 381 438 18,000 1,680 Climbing New York Center
11:57AM 40.0447 -74.3775 215° Southwest 402 463 20,600 1,560 Climbing Washington Center
11:58AM 39.9561 -74.4683 218° Southwest 407 468 22,000 1,380 Climbing Washington Center
11:59AM 39.8633 -74.5617 218° Southwest 413 475 23,400 960 Climbing Washington Center
12:00PM 39.7619 -74.6575 216° Southwest 418 481 24,000 720 Climbing Washington Center
12:01PM 39.6708 -74.7503 218° Southwest 418 481 24,900 960 Climbing Washington Center
12:02PM 39.5758 -74.8431 217° Southwest 418 481 26,000 1,140 Climbing Washington Center
12:03PM 39.4825 -74.9356 217° Southwest 423 487 27,300 960 Climbing Washington Center
12:04PM 39.3872 -75.0222 215° Southwest 423 487 28,000 300 Climbing Washington Center
12:05PM 39.2728 -75.0794 201° Southwest 423 487 28,000  Level Washington Center
12:06PM 39.1625 -75.1311 200° South 429 494 28,000  Level Washington Center
12:07PM 39.0481 -75.1853 200° South 434 499 28,000  Level Washington Center
12:08PM 38.9378 -75.2394 201° Southwest 434 499 28,000  Level Washington Center
12:09PM 38.8253 -75.2878 199° South 434 499 28,000  Level Washington Center
12:10PM 38.7150 -75.3389 200° South 429 494 28,000  Level Washington Center
12:11PM 38.6025 -75.3925 200° South 429 494 28,000  Level Washington Center
12:12PM 38.4900 -75.4431 199° South 429 494 28,000  Level Washington Center
12:13PM 38.3775 -75.4964 200° South 429 494 28,000  Level Washington Center
12:15PM 38.2399 -75.5413 199° South  Level FlightAware Approximate
12:16PM 38.0522 -75.6367 203° Southwest 435 501 28,000  Level Washington Center
12:17PM 37.9436 -75.6919 202° Southwest 428 493 28,000  Level Washington Center
12:18PM 37.8311 -75.7417 199° South 428 493 28,000  Level Washington Center
12:19PM 37.7183 -75.7861 197° South 428 493 28,000  Level Washington Center
12:20PM 37.6056 -75.8356 199° South 428 493 28,000  Level Washington Center
12:21PM 37.4928 -75.8875 200° South 428 493 28,000  Level Washington Center
12:22PM 37.5118 -75.8613 203° Southwest  Level FlightAware Approximate
12:22PM 37.3864 -75.9472 204° Southwest 428 493 28,000  Level Washington Center
12:23PM 37.2778 -76.0042 203° Southwest 428 493 28,000  Level Washington Center
12:24PM 37.1669 -76.0636 203° Southwest 428 493 28,000  Level Washington Center
12:25PM 37.0583 -76.1203 203° Southwest 428 493 28,000  Level Washington Center
12:26PM 36.9433 -76.1767 201° Southwest 439 505 28,000  Level Washington Center
12:27PM 36.8406 -76.2486 209° Southwest 439 505 28,000  Level Washington Center
12:28PM 36.7442 -76.3333 215° Southwest 433 498 28,000  Level Washington Center
12:29PM 36.6517 -76.4231 218° Southwest 433 498 28,000  Level Washington Center
12:30PM 36.5425 -76.5228 216° Southwest 440 506 28,000  Level Washington Center
12:31PM 36.4481 -76.6094 216° Southwest 440 506 28,000  Level Washington Center
12:32PM 36.3553 -76.7008 218° Southwest 440 506 28,000  Level Washington Center
12:33PM 36.2628 -76.7950 219° Southwest 440 506 28,000  Level Washington Center
12:34PM 36.1700 -76.8861 218° Southwest 440 506 28,000  Level Washington Center
12:35PM 36.0772 -76.9772 218° Southwest 434 499 28,000  Level Washington Center
12:36PM 35.9883 -77.0706 220° Southwest 429 494 28,000  Level Washington Center
12:37PM 35.9100 -77.1564 222° Southwest 424 488 28,000  Level Washington Center
12:38PM 35.8169 -77.2467 218° Southwest 424 488 28,000  Level Washington Center
12:39PM 35.7239 -77.3394 219° Southwest 424 488 28,000  Level Washington Center
12:40PM 35.6328 -77.4294 219° Southwest 424 488 28,000  Level Washington Center
12:41PM 35.5417 -77.5219 220° Southwest 424 488 28,000  Level Washington Center
12:42PM 35.4506 -77.6114 219° Southwest 429 494 28,000  Level Washington Center
12:43PM 35.3550 -77.7008 217° Southwest 429 494 28,000  Level Washington Center
12:44PM 35.2658 -77.7900 219° Southwest 424 488 28,000  Level Washington Center
12:45PM 35.1722 -77.8814 219° Southwest 429 494 28,000  Level Washington Center
12:46PM 35.0767 -77.9725 218° Southwest 429 494 28,000  Level Washington Center
12:47PM 34.9850 -78.0636 219° Southwest 429 494 28,000  Level Washington Center
12:48PM 34.8914 -78.1519 218° Southwest 429 494 28,000  Level Washington Center
12:49PM 34.8017 -78.2453 221° Southwest 429 494 28,000  Level Washington Center
12:50PM 34.7058 -78.3331 217° Southwest 429 494 28,000  Level Washington Center
12:51PM 34.6056 -78.4281 218° Southwest 429 494 28,000  Level Washington Center
12:54PM 34.3078 -78.7197 219° Southwest 431 496 28,000  Level Jacksonville Center
12:55PM 34.2147 -78.8097 219° Southwest 431 496 28,000  Level Jacksonville Center
12:56PM 34.1239 -78.9017 220° Southwest 431 496 28,000  Level Jacksonville Center
12:57PM 34.0264 -78.9889 217° Southwest 437 503 28,000  Level Jacksonville Center
12:58PM 33.9331 -79.0756 218° Southwest 437 503 28,000  Level Jacksonville Center
12:59PM 33.8397 -79.1622 218° Southwest 431 496 28,000  Level Jacksonville Center
01:00PM 33.7442 -79.2511 218° Southwest 431 496 28,000  Level Jacksonville Center
01:01PM 33.6528 -79.3372 218° Southwest 426 490 28,000  Level Jacksonville Center
01:02PM 33.5614 -79.4256 219° Southwest 426 490 28,000  Level Jacksonville Center
01:03PM 33.4656 -79.5114 217° Southwest 431 496 28,000  Level Jacksonville Center
01:04PM 33.3739 -79.5994 219° Southwest 431 496 28,000  Level Jacksonville Center
01:05PM 33.2803 -79.6875 218° Southwest 431 496 28,000  Level Jacksonville Center
01:06PM 33.1883 -79.7703 217° Southwest 426 490 28,000  Level Jacksonville Center
01:07PM 33.0967 -79.8553 218° Southwest 426 490 28,000  Level Jacksonville Center
01:08PM 33.0025 -79.9400 217° Southwest 431 496 28,000  Level Jacksonville Center
01:09PM 32.9086 -80.0272 218° Southwest 431 496 28,000  Level Jacksonville Center
01:10PM 32.8100 -80.1022 213° Southwest 431 496 28,000  Level Jacksonville Center
01:11PM 32.7094 -80.1792 213° Southwest 431 496 28,000 -60 Level Jacksonville Center
01:12PM 32.6086 -80.2539 212° Southwest 431 496 27,900  Descending Jacksonville Center
01:13PM 32.5122 -80.3256 212° Southwest 426 490 28,000  Climbing Jacksonville Center
01:14PM 32.4114 -80.3997 212° Southwest 426 490 28,000  Level Jacksonville Center
01:15PM 32.3106 -80.4764 213° Southwest 426 490 28,000  Level Jacksonville Center
01:16PM 32.2075 -80.5478 210° Southwest 426 490 28,000  Level Jacksonville Center
01:17PM 32.1211 -80.6139 213° Southwest 426 490 28,000  Level Jacksonville Center
01:18PM 32.0097 -80.6925 211° Southwest 426 490 28,000  Level Jacksonville Center
01:19PM 31.9086 -80.7608 210° Southwest 426 490 28,000  Level Jacksonville Center
01:20PM 31.7944 -80.8050 198° South 426 490 28,000  Level Jacksonville Center
01:21PM 31.6781 -80.8419 195° South 431 496 28,000  Level Jacksonville Center
01:22PM 31.5764 -80.8708 194° South 431 496 28,000  Level Jacksonville Center
01:23PM 31.4475 -80.9128 196° South 431 496 28,000  Level Jacksonville Center
01:24PM 31.3269 -80.9494 195° South 441 507 28,000  Level Jacksonville Center
01:25PM 31.2083 -80.9833 194° South 441 507 28,000  Level Jacksonville Center
01:26PM 31.0942 -81.0222 196° South 436 502 28,000  Level Jacksonville Center
01:27PM 30.9778 -81.0583 195° South 436 502 28,000  Level Jacksonville Center
01:28PM 30.8614 -81.0919 194° South 431 496 28,000  Level Jacksonville Center
01:29PM 30.7428 -81.1281 195° South 431 496 28,000  Level Jacksonville Center
01:30PM 30.6222 -81.1594 193° South 436 502 28,000  Level Jacksonville Center
01:31PM 30.4989 -81.1567 179° South 436 502 28,000  Level Jacksonville Center
01:32PM 30.3778 -81.1517 178° South 441 507 28,000  Level Jacksonville Center
01:33PM 30.2525 -81.1492 179° South 441 507 28,000  Level Jacksonville Center
01:34PM 30.1250 -81.1467 179° South 446 513 28,000  Level Jacksonville Center
01:35PM 30.0039 -81.1417 178° South 446 513 28,000  Level Jacksonville Center
01:36PM 29.8767 -81.1392 179° South 446 513 28,000  Level Jacksonville Center
01:37PM 29.7492 -81.1342 178° South 451 519 28,000  Level Jacksonville Center
01:38PM 29.6239 -81.1342 180° South 457 526 28,000  Level Jacksonville Center
01:39PM 29.5025 -81.1006 166° South 457 526 28,000  Level Jacksonville Center
01:40PM 29.4075 -81.0261 146° Southeast 441 507 28,000  Level Jacksonville Center
01:41PM 29.2975 -80.9375 145° Southeast 460 529 28,000  Level Jacksonville Center
01:42PM 29.1897 -80.8542 146° Southeast 476 548 28,000  Level Jacksonville Center
01:43PM 29.1308 -80.8094 146° Southeast 475 547 28,000  Level Miami Center
01:44PM 29.0247 -80.7203 144° Southeast 483 556 28,000  Level Miami Center
01:45PM 28.9042 -80.6261 146° Southeast 483 556 28,000  Level Miami Center
01:46PM 28.8000 -80.5419 145° Southeast 475 547 28,000  Level Miami Center
01:47PM 28.6939 -80.4558 145° Southeast 475 547 28,000  Level Miami Center
01:48PM 28.5939 -80.3578 139° Southeast 475 547 28,000  Level Miami Center
01:49PM 28.5086 -80.2656 136° Southeast 475 547 28,000  Level Miami Center
01:50PM 28.4192 -80.1683 136° Southeast 460 529 28,000  Level Miami Center
01:51PM 28.3039 -80.0872 148° Southeast 447 514 28,000  Level Miami Center
01:52PM 28.1858 -80.0508 165° South 435 501 28,000  Level Miami Center
01:53PM 28.0678 -80.0122 164° South 441 507 28,000  Level Miami Center
01:54PM 27.9578 -79.9761 164° South 446 513 28,000  Level Miami Center
01:56PM 27.7008 -79.8964 165° South 456 525 28,000  Level Miami Center
01:57PM 27.5783 -79.8606 165° South 451 519 28,000 -840 Level Miami Center
01:58PM 27.4581 -79.8244 165° South 451 519 26,400 -1,320 Descending Miami Center
01:59PM 27.3522 -79.7914 164° South 445 512 25,400 -1,020 Descending Miami Center
02:00PM 27.2464 -79.7583 164° South 418 481 24,400 -1,440 Descending Miami Center
02:01PM 27.1361 -79.7275 166° South 383 441 22,600 -1,680 Descending Miami Center
02:02PM 27.0431 -79.6811 156° South 365 420 21,100 -1,500 Descending Miami Center
02:03PM 26.9564 -79.6322 153° Southeast 354 407 19,600 -1,800 Descending Miami Center
02:04PM 26.8842 -79.5864 150° Southeast 342 394 17,600 -2,160 Descending Miami Center
02:05PM 26.7975 -79.5308 150° Southeast 329 379 15,300 -1,800 Descending Miami Center
02:06PM 26.7253 -79.4850 150° Southeast 319 367 14,000 -1,440 Descending Miami Center
02:07PM 26.6844 -79.5397 230° Southwest 202 232 12,500 -1,440 Descending Miami Center
02:08PM 26.6603 -79.6067 248° West 215 247 11,200 -1,440 Descending Miami Center
02:08PM 26.6453 -79.6250 228° Southwest 237 273 10,700 -1,320 Descending Miami Center
02:09PM 26.6175 -79.6544 223° Southwest 233 268 9,900 -1,320 Descending Miami Center
02:10PM 26.5644 -79.7044 220° Southwest 238 274 8,500 -960 Descending Miami Center
02:11PM 26.5239 -79.7475 224° Southwest 238 274 8,000 -300 Descending Miami Center
02:12PM 26.4728 -79.7972 221° Southwest 228 262 8,000  Level Miami Center
02:13PM 26.4239 -79.8356 215° Southwest 238 274 8,000 -240 Level Miami Center
02:14PM 26.3708 -79.8736 213° Southwest 227 261 7,600 -900 Descending Miami Center
02:15PM 26.3406 -79.9331 240° Southwest 227 261 6,200 -1,380 Descending Miami Center
02:16PM 26.3078 -79.9925 238° Southwest 227 261 5,000 -1,080 Descending Miami Center
02:17PM 26.2794 -80.0542 243° Southwest 228 262 4,100 -480 Descending Miami Center
02:18PM 26.2467 -80.1206 241° Southwest 223 257 4,000 -60 Descending Miami Center
02:19PM 26.2139 -80.1822 239° Southwest 221 254 4,000  Level Miami Center
02:20PM 26.1875 -80.2369 242° Southwest 222 255 4,000  Level Miami Center
02:21PM 26.1589 -80.3056 245° Southwest 188 216 4,000  Level Miami Center
02:22PM 26.1575 -80.3633 268° West 188 216 4,000  Level Miami Center
02:23PM 26.1581 -80.4189 271° West 183 211 4,000  Level Miami Center
02:24PM 26.1078 -80.4314 193° South 169 194 4,000 -180 Level Miami Center
02:25PM 26.0775 -80.3842 126° Southeast 178 205 3,600 -540 Descending Miami Center
02:26PM 26.0744 -80.3403 94° East 173 199 3,000 -720 Descending Miami Center